Time;durP1;ratioP1;P1;durP2;ratioP2;P2;SDS_P1;SDS_P2;PMS_P1;PMS_P2;Temp;Humidity;BMP_temperature;BMP_pressure;BME280_temperature;BME280_humidity;BME280_pressure;Samples;Min_cycle;Max_cycle;Signal;HPM_P1;HPM_P2
2022/03/09 00:01:39;;;;;;;39.50;14.85;;;;;;;2.76;58.41;101995.66;5082890;28;20038;-47
2022/03/09 00:04:05;;;;;;;31.83;14.52;;;;;;;2.76;58.72;102007.16;5087122;28;20036;-49
2022/03/09 00:06:30;;;;;;;30.98;13.55;;;;;;;2.77;58.53;102008.88;5088699;28;20059;-47
2022/03/09 00:08:56;;;;;;;30.40;14.30;;;;;;;2.81;58.54;102010.34;5089994;28;20063;-46
2022/03/09 00:11:21;;;;;;;27.83;14.43;;;;;;;2.78;58.32;102015.88;5089764;28;20508;-46
2022/03/09 00:13:47;;;;;;;28.33;13.45;;;;;;;2.68;58.79;102012.13;5089826;28;20526;-46
2022/03/09 00:16:12;;;;;;;30.80;13.50;;;;;;;2.68;58.81;102011.28;5083333;28;20150;-47
2022/03/09 00:18:38;;;;;;;34.78;14.30;;;;;;;2.65;58.65;102015.00;5089543;28;20023;-48
2022/03/09 00:21:03;;;;;;;33.53;14.00;;;;;;;2.64;59.00;102015.97;5089891;28;20060;-45
2022/03/09 00:23:29;;;;;;;32.17;14.23;;;;;;;2.58;58.81;102013.69;5089672;28;20024;-47
2022/03/09 00:25:54;;;;;;;36.28;16.67;;;;;;;2.58;58.85;102019.00;5089240;28;20470;-46
2022/03/09 00:28:19;;;;;;;47.65;20.83;;;;;;;2.58;59.76;102008.38;5089542;28;20140;-46
2022/03/09 00:30:44;;;;;;;230.38;93.60;;;;;;;2.60;58.52;102006.47;5089594;28;20456;-47
2022/03/09 00:33:10;;;;;;;221.90;89.65;;;;;;;2.59;59.15;102013.59;5089626;28;20444;-46
2022/03/09 00:35:38;;;;;;;164.02;69.15;;;;;;;2.60;59.64;102009.13;5089683;28;20519;-48
2022/03/09 00:38:04;;;;;;;168.38;70.40;;;;;;;2.59;59.26;102015.41;5092287;28;20024;-47
2022/03/09 00:40:29;;;;;;;174.65;72.72;;;;;;;2.63;59.26;102008.91;5092975;28;20436;-49
2022/03/09 00:42:56;;;;;;;182.60;71.82;;;;;;;2.65;59.26;102025.63;5093150;28;20032;-48
2022/03/09 00:45:21;;;;;;;212.35;81.80;;;;;;;2.69;59.34;102021.81;5092947;28;20036;-48
2022/03/09 00:47:46;;;;;;;206.68;76.50;;;;;;;2.71;58.63;102017.22;5092133;28;20081;-46
2022/03/09 00:50:11;;;;;;;202.05;76.20;;;;;;;2.65;59.55;102020.31;5092863;28;20394;-47
2022/03/09 00:52:37;;;;;;;171.80;66.88;;;;;;;2.57;59.78;102027.94;5092627;28;20158;-47
2022/03/09 00:55:03;;;;;;;94.35;38.15;;;;;;;2.56;59.92;102034.22;5092432;28;20085;-47
2022/03/09 00:57:28;;;;;;;69.97;28.00;;;;;;;2.64;59.32;102035.41;5092638;28;20432;-47
2022/03/09 00:59:54;;;;;;;42.10;19.48;;;;;;;2.68;59.00;102029.88;5092600;28;20030;-48
2022/03/09 01:02:19;;;;;;;33.90;15.40;;;;;;;2.64;58.22;102034.56;5092414;28;20429;-47
2022/03/09 01:04:44;;;;;;;40.67;17.50;;;;;;;2.59;58.92;102031.34;5092708;28;20398;-46
2022/03/09 01:07:10;;;;;;;43.97;16.83;;;;;;;2.51;59.33;102031.00;5091638;28;20047;-45
2022/03/09 01:09:35;;;;;;;40.67;17.42;;;;;;;2.47;60.28;102032.16;5092100;28;20051;-48
2022/03/09 01:12:00;;;;;;;31.70;15.25;;;;;;;2.47;59.44;102025.03;5092287;28;20030;-50
2022/03/09 01:14:25;;;;;;;38.65;15.32;;;;;;;2.44;60.00;102029.69;5075895;28;20498;-46
2022/03/09 01:16:51;;;;;;;36.08;14.02;;;;;;;2.38;59.74;102022.97;5084167;28;20031;-47
2022/03/09 01:19:16;;;;;;;28.70;13.88;;;;;;;2.41;58.91;102028.09;5091251;28;20035;-47
2022/03/09 01:21:42;;;;;;;32.03;13.15;;;;;;;2.39;59.46;102030.81;5092174;28;20020;-48
2022/03/09 01:24:07;;;;;;;30.75;14.18;;;;;;;2.34;59.62;102030.31;5092111;28;20028;-48
2022/03/09 01:26:33;;;;;;;31.23;13.68;;;;;;;2.30;60.40;102026.13;5091512;28;20036;-47
2022/03/09 01:28:59;;;;;;;30.65;14.27;;;;;;;2.37;59.26;102030.09;5092803;28;20405;-48
2022/03/09 01:31:24;;;;;;;27.77;13.52;;;;;;;2.35;59.31;102028.50;5091905;28;20093;-46
2022/03/09 01:33:50;;;;;;;28.67;13.57;;;;;;;2.33;58.85;102020.63;5092352;28;20032;-47
2022/03/09 01:36:15;;;;;;;30.88;14.18;;;;;;;2.25;60.08;102022.91;5092019;28;20028;-48
2022/03/09 01:38:40;;;;;;;31.55;13.52;;;;;;;2.26;59.54;102021.09;5091634;28;20372;-47
2022/03/09 01:41:05;;;;;;;27.92;13.95;;;;;;;2.21;60.06;102016.09;5091466;28;20509;-47
2022/03/09 01:43:31;;;;;;;28.85;13.27;;;;;;;2.15;59.20;102011.19;5092203;28;20032;-48
2022/03/09 01:45:57;;;;;;;30.13;14.32;;;;;;;2.15;59.53;102022.66;5091549;28;20024;-47
2022/03/09 01:48:22;;;;;;;31.23;13.50;;;;;;;2.15;59.20;102008.53;5090448;28;20440;-48
2022/03/09 01:50:47;;;;;;;32.08;13.57;;;;;;;2.15;59.20;102008.53;5091498;28;20482;-47
2022/03/09 01:53:13;;;;;;;32.78;12.90;;;;;;;2.20;58.32;102006.41;5091382;28;20035;-48
2022/03/09 01:55:39;;;;;;;30.98;13.35;;;;;;;2.20;58.36;102014.38;5090488;28;20116;-48
2022/03/09 01:58:04;;;;;;;26.88;13.45;;;;;;;2.18;58.45;102009.16;5090910;28;20024;-48
2022/03/09 02:00:30;;;;;;;26.27;13.15;;;;;;;2.20;58.78;102014.38;5091409;28;20027;-47
2022/03/09 02:02:55;;;;;;;27.08;13.00;;;;;;;2.24;58.71;102010.59;5083193;28;20505;-47
2022/03/09 02:05:20;;;;;;;28.08;12.82;;;;;;;2.29;58.66;102003.19;5091686;28;20465;-47
2022/03/09 02:10:30;;;;;;;28.67;13.15;;;;;;;2.22;58.35;102003.69;5091354;28;20046;-46
2022/03/09 02:12:55;;;;;;;30.02;13.25;;;;;;;2.20;57.96;102009.06;5090565;28;20020;-46
2022/03/09 02:15:20;;;;;;;30.38;13.40;;;;;;;2.16;57.63;102008.44;5091192;28;20028;-47
2022/03/09 02:17:45;;;;;;;30.42;13.38;;;;;;;2.18;57.78;102011.81;5090811;28;20158;-46
2022/03/09 02:20:11;;;;;;;31.13;14.18;;;;;;;2.15;57.82;102017.34;5091236;28;20032;-47
2022/03/09 02:22:38;;;;;;;27.33;13.18;;;;;;;2.20;58.12;102014.38;5090952;28;20043;-47
2022/03/09 02:25:10;;;;;;;27.13;12.93;;;;;;;2.25;57.85;102017.59;5091234;28;20028;-47
2022/03/09 02:27:36;;;;;;;26.92;12.98;;;;;;;2.22;58.34;102009.84;5091330;28;20028;-47
2022/03/09 02:30:02;;;;;;;29.45;13.05;;;;;;;2.25;57.66;102012.28;5090317;28;20032;-48
2022/03/09 02:32:28;;;;;;;37.13;13.75;;;;;;;2.18;57.67;102005.66;5089155;28;20105;-47
2022/03/09 02:34:53;;;;;;;30.10;13.38;;;;;;;2.19;57.57;102005.56;5090846;28;20043;-48
2022/03/09 02:37:18;;;;;;;23.98;12.50;;;;;;;2.15;57.29;102005.88;5090885;28;20035;-46
2022/03/09 02:39:44;;;;;;;27.05;13.45;;;;;;;2.14;57.43;101994.41;5090382;28;20032;-49
2022/03/09 02:42:10;;;;;;;27.45;12.95;;;;;;;2.12;57.69;101998.09;5090868;28;20059;-48
2022/03/09 02:44:35;;;;;;;24.73;12.00;;;;;;;2.14;58.05;101991.75;5090205;28;20038;-47
2022/03/09 02:47:01;;;;;;;29.02;12.70;;;;;;;2.18;57.80;101989.72;5090853;28;20036;-48
2022/03/09 02:49:26;;;;;;;28.98;13.40;;;;;;;2.14;57.77;101990.91;5090681;28;20158;-48
2022/03/09 02:51:52;;;;;;;29.52;12.70;;;;;;;2.11;58.27;101989.28;5090958;28;20020;-48
2022/03/09 02:54:17;;;;;;;30.98;12.52;;;;;;;2.08;58.12;101994.81;5089802;28;20103;-49
2022/03/09 02:56:43;;;;;;;27.90;13.15;;;;;;;2.06;57.81;101990.53;5090110;28;20043;-46
2022/03/09 02:59:08;;;;;;;26.83;12.73;;;;;;;2.05;58.35;101994.13;5090004;28;20036;-47
2022/03/09 03:01:33;;;;;;;28.25;12.50;;;;;;;2.03;58.34;101996.91;5086482;28;20099;-47
2022/03/09 03:03:59;;;;;;;28.80;13.18;;;;;;;2.06;58.16;101988.72;5089952;28;20214;-47
2022/03/09 03:06:25;;;;;;;28.95;13.35;;;;;;;2.05;58.23;101988.81;5084323;28;20078;-47
2022/03/09 03:08:50;;;;;;;25.42;12.73;;;;;;;2.02;58.67;101987.19;5092025;28;20173;-49
2022/03/09 03:11:16;;;;;;;30.25;13.60;;;;;;;2.00;57.88;101983.78;5092086;28;20035;-47
2022/03/09 03:13:42;;;;;;;26.15;12.02;;;;;;;2.03;57.66;101990.72;5091293;28;20052;-49
2022/03/09 03:16:08;;;;;;;29.73;13.48;;;;;;;1.97;57.97;101987.53;5091253;28;20470;-47
2022/03/09 03:18:33;;;;;;;25.38;12.40;;;;;;;2.02;58.43;101996.97;5092037;28;20157;-48
2022/03/09 03:20:59;;;;;;;33.10;13.38;;;;;;;2.00;58.43;101997.06;5091305;28;20115;-47
2022/03/09 03:23:26;;;;;;;26.98;12.90;;;;;;;2.01;58.86;101984.66;5091844;28;20050;-48
2022/03/09 03:25:52;;;;;;;30.85;13.75;;;;;;;1.96;58.00;101991.13;5090811;28;20048;-47
2022/03/09 03:28:17;;;;;;;23.02;11.48;;;;;;;2.01;58.55;101995.28;5091188;28;20122;-48
2022/03/09 03:30:43;;;;;;;22.63;12.38;;;;;;;2.03;58.70;101994.25;5083734;28;20114;-46
2022/03/09 03:33:09;;;;;;;30.25;13.63;;;;;;;1.97;59.31;101992.84;5091469;28;20023;-49
2022/03/09 03:35:34;;;;;;;27.67;12.52;;;;;;;1.93;58.48;101985.16;5091241;28;20044;-46
2022/03/09 03:37:59;;;;;;;29.58;12.55;;;;;;;1.92;59.69;101994.06;5091662;28;20051;-49
2022/03/09 03:40:25;;;;;;;24.42;13.10;;;;;;;1.92;58.81;101989.63;5091470;28;20039;-46
2022/03/09 03:42:50;;;;;;;30.23;12.93;;;;;;;1.96;58.62;101993.75;5091530;28;20028;-47
2022/03/09 03:45:15;;;;;;;24.98;12.65;;;;;;;1.96;59.37;101995.56;5091499;28;20032;-48
2022/03/09 03:47:40;;;;;;;26.70;12.82;;;;;;;1.89;59.91;101997.75;5091051;28;20036;-46
2022/03/09 03:50:06;;;;;;;24.00;12.57;;;;;;;1.95;59.26;101997.38;5091351;28;20032;-48
2022/03/09 03:52:31;;;;;;;26.35;13.20;;;;;;;1.85;59.89;101992.75;5091050;28;20039;-49
2022/03/09 03:54:57;;;;;;;27.73;12.73;;;;;;;1.83;59.70;102005.25;5089988;28;20621;-47
2022/03/09 03:57:22;;;;;;;28.00;13.48;;;;;;;1.71;60.40;102001.56;5091418;28;20103;-49
2022/03/09 03:59:47;;;;;;;24.25;12.35;;;;;;;1.66;60.69;102001.00;5091416;28;20030;-47
2022/03/09 04:02:12;;;;;;;31.08;14.23;;;;;;;1.68;60.50;101996.44;5089390;28;20050;-49
2022/03/09 04:04:38;;;;;;;27.40;13.32;;;;;;;1.64;61.43;101997.59;5085524;28;20059;-47
2022/03/09 04:07:03;;;;;;;28.77;12.35;;;;;;;1.55;62.05;101991.06;5090993;28;20127;-46
2022/03/09 04:09:29;;;;;;;23.30;12.25;;;;;;;1.54;60.90;101992.84;5091361;28;20485;-46
2022/03/09 04:11:54;;;;;;;31.58;13.73;;;;;;;1.49;62.28;101988.78;5094396;28;20071;-47
2022/03/09 04:14:22;;;;;;;29.15;13.55;;;;;;;1.48;62.18;101992.41;5094852;28;20040;-47
2022/03/09 04:16:50;;;;;;;23.80;12.90;;;;;;;1.54;61.42;101994.66;5094543;28;20035;-47
2022/03/09 04:19:15;;;;;;;29.80;13.90;;;;;;;1.57;60.65;101993.63;5094489;28;20797;-47
2022/03/09 04:21:41;;;;;;;31.05;13.45;;;;;;;1.57;60.77;101997.13;5094886;28;20107;-46
2022/03/09 04:24:06;;;;;;;27.67;12.82;;;;;;;1.54;60.29;101992.84;5094822;28;20032;-47
2022/03/09 04:26:32;;;;;;;32.72;13.30;;;;;;;1.50;60.95;101991.38;5094189;28;20032;-47
2022/03/09 04:28:58;;;;;;;28.73;13.65;;;;;;;1.43;61.77;101997.13;5094541;28;20043;-47
2022/03/09 04:31:24;;;;;;;29.65;13.45;;;;;;;1.40;62.82;101998.19;5093134;28;20032;-49
2022/03/09 04:33:49;;;;;;;26.20;13.07;;;;;;;1.35;62.73;101991.44;5093846;28;20033;-46
2022/03/09 04:36:14;;;;;;;28.25;14.20;;;;;;;1.37;62.92;102003.69;5094130;28;20023;-46
2022/03/09 04:38:40;;;;;;;33.33;14.48;;;;;;;1.36;62.99;102001.94;5095111;28;20077;-46
2022/03/09 04:41:05;;;;;;;31.92;14.38;;;;;;;1.35;63.91;101999.41;5094907;28;20043;-46
2022/03/09 04:43:30;;;;;;;31.65;13.73;;;;;;;1.33;64.43;101999.50;5094842;28;20020;-49
2022/03/09 04:45:56;;;;;;;27.15;13.88;;;;;;;1.29;63.38;102000.59;5093901;28;20394;-46
2022/03/09 04:48:21;;;;;;;24.67;13.32;;;;;;;1.24;63.45;101997.41;5094533;28;20443;-48
2022/03/09 04:50:46;;;;;;;31.50;14.93;;;;;;;1.28;64.02;102012.19;5088206;28;20032;-48
2022/03/09 04:53:11;;;;;;;29.92;14.15;;;;;;;1.25;63.86;101994.66;5092525;28;20043;-46
2022/03/09 04:55:37;;;;;;;29.58;14.20;;;;;;;1.25;63.87;101999.97;5093747;28;20039;-46
2022/03/09 04:58:02;;;;;;;36.95;14.32;;;;;;;1.25;63.68;101996.47;5094287;28;20032;-47
2022/03/09 05:00:27;;;;;;;25.27;12.45;;;;;;;1.22;62.82;102000.16;5093523;28;20040;-48
2022/03/09 05:02:53;;;;;;;32.45;14.23;;;;;;;1.26;63.05;102000.81;5091684;28;20679;-47
2022/03/09 05:05:18;;;;;;;27.10;12.82;;;;;;;1.26;62.11;102003.44;5094002;28;20481;-48
2022/03/09 05:07:43;;;;;;;25.48;12.50;;;;;;;1.29;61.35;101995.31;5087092;28;20060;-49
2022/03/09 05:10:10;;;;;;;26.83;12.65;;;;;;;1.30;62.35;102005.00;5087632;28;20036;-47
2022/03/09 05:12:35;;;;;;;27.70;12.63;;;;;;;1.31;61.86;102012.00;5086680;28;20028;-46
2022/03/09 05:15:00;;;;;;;30.85;13.57;;;;;;;1.29;62.79;102014.75;5093227;28;20030;-49
2022/03/09 05:17:26;;;;;;;26.30;12.50;;;;;;;1.32;61.21;102008.41;5085379;28;20670;-47
2022/03/09 05:19:51;;;;;;;28.20;13.15;;;;;;;1.33;60.49;102010.09;5093618;28;20035;-48
2022/03/09 05:22:16;;;;;;;29.23;12.80;;;;;;;1.44;58.98;101999.69;5093023;28;20031;-49
2022/03/09 05:24:42;;;;;;;31.80;12.50;;;;;;;1.49;58.65;102008.22;5093309;28;20120;-47
2022/03/09 05:27:07;;;;;;;28.25;12.48;;;;;;;1.59;58.52;102005.00;5093627;28;20471;-48
2022/03/09 05:29:32;;;;;;;30.73;12.68;;;;;;;1.64;58.50;102005.56;5093785;28;20028;-48
2022/03/09 05:31:58;;;;;;;28.92;12.07;;;;;;;1.75;57.37;102008.41;5092479;28;20028;-47
2022/03/09 05:34:23;;;;;;;36.22;12.68;;;;;;;1.71;57.84;102006.88;5093369;28;20405;-49
2022/03/09 05:36:48;;;;;;;28.20;12.50;;;;;;;1.74;58.14;102023.47;5093147;28;20031;-47
2022/03/09 05:39:14;;;;;;;24.17;11.63;;;;;;;1.82;57.60;102017.69;5092884;28;20019;-47
2022/03/09 05:41:39;;;;;;;27.02;11.85;;;;;;;1.85;56.16;102025.47;5092999;28;20059;-48
2022/03/09 05:44:06;;;;;;;22.27;11.25;;;;;;;1.87;56.83;102023.56;5087870;28;20367;-48
2022/03/09 05:46:32;;;;;;;26.85;12.18;;;;;;;1.91;56.37;102027.72;5092329;28;20040;-47
2022/03/09 05:48:57;;;;;;;26.33;11.82;;;;;;;1.94;55.83;102026.66;5092910;28;20031;-50
2022/03/09 05:51:22;;;;;;;25.08;11.57;;;;;;;1.93;56.90;102017.84;5092658;28;20028;-48
2022/03/09 05:53:48;;;;;;;30.95;12.05;;;;;;;1.92;57.82;102025.91;5092868;28;20035;-47
2022/03/09 05:56:13;;;;;;;26.83;10.90;;;;;;;1.90;57.52;102027.84;5088442;28;20028;-48
2022/03/09 05:58:39;;;;;;;28.58;11.65;;;;;;;1.94;57.53;102024.00;5092376;28;20085;-49
2022/03/09 06:01:04;;;;;;;25.55;12.18;;;;;;;1.96;57.78;102016.81;5092556;28;20028;-47
2022/03/09 06:03:29;;;;;;;37.08;12.95;;;;;;;1.93;58.07;102020.50;5080212;28;20079;-47
2022/03/09 06:05:54;;;;;;;45.47;12.50;;;;;;;1.91;58.19;102027.72;5088904;28;20424;-47
2022/03/09 06:08:20;;;;;;;30.40;13.02;;;;;;;1.77;59.05;102029.56;5091847;28;20039;-49
2022/03/09 06:10:45;;;;;;;38.05;13.15;;;;;;;1.66;59.53;102027.53;5089349;28;20071;-49
2022/03/09 06:13:10;;;;;;;30.45;12.65;;;;;;;1.62;60.18;102028.69;5091115;28;20066;-48
2022/03/09 06:15:36;;;;;;;48.72;13.00;;;;;;;1.61;59.75;102024.34;5079166;28;20043;-46
2022/03/09 06:18:01;;;;;;;31.95;12.75;;;;;;;1.58;60.39;102032.47;5090955;28;20028;-48
2022/03/09 06:20:26;;;;;;;42.97;13.25;;;;;;;1.61;60.79;102038.47;5090503;28;20036;-48
2022/03/09 06:22:52;;;;;;;37.50;13.98;;;;;;;1.63;60.70;102033.03;5087158;28;20043;-48
2022/03/09 06:25:18;;;;;;;33.05;12.90;;;;;;;1.60;60.64;102027.91;5090507;28;20016;-47
2022/03/09 06:27:46;;;;;;;30.20;12.73;;;;;;;1.56;60.66;102042.34;5087325;28;20509;-46
2022/03/09 06:30:12;;;;;;;27.35;13.45;;;;;;;1.52;60.54;102039.84;5089800;28;20532;-48
2022/03/09 06:32:38;;;;;;;33.05;13.90;;;;;;;1.57;60.81;102036.06;5082880;28;20433;-45
2022/03/09 06:35:04;;;;;;;35.38;13.07;;;;;;;1.64;60.43;102046.22;5091058;28;20032;-46
2022/03/09 06:37:30;;;;;;;30.02;13.02;;;;;;;1.68;60.56;102042.41;5091068;28;20535;-49
2022/03/09 06:39:58;;;;;;;23.60;12.25;;;;;;;1.70;60.50;102037.03;5090579;28;20042;-47
2022/03/09 06:42:24;;;;;;;;;;;;;;;1.79;60.20;102031.16;5083964;28;20435;-47
2022/03/09 06:44:49;;;;;;;32.20;11.68;;;;;;;2.13;60.21;102039.63;5089786;28;19959;-48
2022/03/09 06:47:15;;;;;;;26.10;13.00;;;;;;;2.57;59.04;102039.41;5090749;28;20067;-46
2022/03/09 06:49:40;;;;;;;27.05;13.30;;;;;;;3.13;57.05;102041.06;5090489;28;20036;-46
2022/03/09 06:52:06;;;;;;;27.08;12.70;;;;;;;4.06;55.44;102042.53;5086098;28;20035;-47
2022/03/09 06:54:31;;;;;;;34.15;14.68;;;;;;;4.45;53.95;102035.25;5090027;28;20028;-48
2022/03/09 06:56:57;;;;;;;25.38;13.88;;;;;;;4.92;52.37;102041.50;5087589;28;20085;-47
2022/03/09 06:59:22;;;;;;;37.65;15.50;;;;;;;5.28;51.67;102047.69;5090197;28;20341;-49
2022/03/09 07:01:47;;;;;;;39.30;13.50;;;;;;;5.45;50.39;102047.25;5090207;28;20044;-48
2022/03/09 07:04:13;;;;;;;37.10;15.63;;;;;;;5.50;50.62;102061.09;5090065;28;20439;-47
2022/03/09 07:06:38;;;;;;;43.60;16.23;;;;;;;5.05;50.89;102058.31;5089376;28;20020;-47
2022/03/09 07:09:03;;;;;;;37.38;15.75;;;;;;;5.16;50.93;102059.31;5089621;28;20023;-45
2022/03/09 07:11:29;;;;;;;39.70;15.63;;;;;;;5.44;49.69;102058.88;5089591;28;20071;-46
2022/03/09 07:13:54;;;;;;;46.05;16.05;;;;;;;5.60;48.99;102055.03;5090563;28;20035;-48
2022/03/09 07:16:19;;;;;;;31.50;16.40;;;;;;;5.80;48.70;102059.66;5089390;28;20040;-46
2022/03/09 07:18:45;;;;;;;47.35;18.52;;;;;;;6.04;48.05;102056.91;5090299;28;20028;-47
2022/03/09 07:21:10;;;;;;;36.53;16.13;;;;;;;6.32;47.90;102060.88;5089399;28;20058;-47
2022/03/09 07:23:35;;;;;;;50.05;17.63;;;;;;;6.44;46.83;102058.19;5089693;28;20073;-47
2022/03/09 07:26:02;;;;;;;48.03;18.33;;;;;;;6.12;47.38;102059.81;5089248;28;20028;-47
2022/03/09 07:28:27;;;;;;;55.10;18.00;;;;;;;5.73;47.83;102063.78;5090096;28;20036;-48
2022/03/09 07:30:53;;;;;;;43.67;18.35;;;;;;;5.81;47.97;102066.69;5089043;28;20500;-46
2022/03/09 07:33:18;;;;;;;49.25;19.63;;;;;;;5.69;47.72;102065.00;5089698;28;20035;-48
2022/03/09 07:35:45;;;;;;;50.45;19.48;;;;;;;5.85;47.54;102070.84;5089421;28;20422;-49
2022/03/09 07:38:10;;;;;;;44.40;18.45;;;;;;;5.86;47.83;102075.19;5082755;28;20426;-48
2022/03/09 07:40:36;;;;;;;55.65;19.95;;;;;;;6.04;47.22;102074.75;5089547;28;20110;-46
2022/03/09 07:43:01;;;;;;;42.15;19.17;;;;;;;6.56;46.11;102067.88;5070338;28;20122;-46
2022/03/09 07:45:26;;;;;;;46.28;19.92;;;;;;;7.67;44.83;102068.31;5076444;28;20498;-48
2022/03/09 07:47:52;;;;;;;47.83;20.50;;;;;;;7.81;43.17;102071.63;5082491;28;20024;-48
2022/03/09 07:50:17;;;;;;;47.70;20.75;;;;;;;8.07;42.95;102072.84;5083403;28;20032;-47
2022/03/09 07:52:42;;;;;;;45.50;20.48;;;;;;;8.10;41.87;102072.56;5092558;28;20028;-47
2022/03/09 07:55:08;;;;;;;51.85;21.90;;;;;;;8.79;40.63;102062.88;5075010;28;20021;-47
2022/03/09 07:57:34;;;;;;;48.45;19.63;;;;;;;10.39;38.18;102074.66;5094106;28;20051;-46
2022/03/09 08:00:00;;;;;;;55.58;23.88;;;;;;;9.16;38.93;102078.28;5086114;28;20165;-46
2022/03/09 08:02:25;;;;;;;59.13;22.75;;;;;;;9.37;39.10;102080.81;5093426;28;20092;-47
2022/03/09 08:04:51;;;;;;;55.72;22.63;;;;;;;9.62;38.42;102076.66;5093227;28;20106;-48
2022/03/09 08:07:16;;;;;;;58.05;22.55;;;;;;;10.06;37.21;102079.63;5074374;28;20048;-48
2022/03/09 08:09:41;;;;;;;61.28;22.65;;;;;;;10.03;36.97;102080.78;5080706;28;20028;-48
2022/03/09 08:12:09;;;;;;;57.03;23.40;;;;;;;10.90;36.44;102083.94;5087942;28;20128;-48
2022/03/09 08:14:35;;;;;;;60.20;22.98;;;;;;;11.16;36.33;102073.25;5086348;28;20028;-46
2022/03/09 08:17:00;;;;;;;51.47;21.67;;;;;;;11.63;34.54;102072.91;5093433;28;20502;-47
2022/03/09 08:19:25;;;;;;;51.90;22.42;;;;;;;11.77;34.90;102074.19;5086795;28;20043;-48
2022/03/09 08:21:51;;;;;;;60.10;22.90;;;;;;;11.79;34.70;102069.47;5072870;28;20072;-48
2022/03/09 08:24:16;;;;;;;55.53;22.50;;;;;;;12.45;34.11;102073.34;5090258;28;20027;-47
2022/03/09 08:26:41;;;;;;;50.65;22.75;;;;;;;13.22;32.83;102079.38;5093092;28;20078;-47
2022/03/09 08:29:07;;;;;;;57.45;23.17;;;;;;;12.29;33.09;102079.53;5089248;28;20028;-49
2022/03/09 08:31:32;;;;;;;50.58;22.10;;;;;;;13.37;31.87;102083.09;5080723;28;20479;-47
2022/03/09 08:33:58;;;;;;;47.85;21.77;;;;;;;12.38;32.24;102078.56;5079826;28;20059;-46
2022/03/09 08:36:23;;;;;;;48.92;21.20;;;;;;;13.28;31.23;102078.72;5072790;28;20480;-47
2022/03/09 08:38:49;;;;;;;46.20;21.00;;;;;;;12.93;31.53;102079.88;5083945;28;20024;-47
2022/03/09 08:41:14;;;;;;;54.90;21.55;;;;;;;13.35;31.52;102073.50;5090733;28;20394;-48
2022/03/09 08:43:39;;;;;;;48.08;21.85;;;;;;;13.20;31.49;102069.75;5079650;28;20020;-47
2022/03/09 08:46:05;;;;;;;46.72;21.08;;;;;;;11.97;32.37;102074.84;5078202;28;20021;-45
2022/03/09 08:48:31;;;;;;;48.20;21.42;;;;;;;11.94;33.17;102073.31;5084049;28;20042;-47
2022/03/09 08:50:56;;;;;;;44.20;21.15;;;;;;;13.09;32.03;102079.03;5076781;28;20120;-47
2022/03/09 08:53:22;;;;;;;52.65;21.60;;;;;;;12.17;32.42;102075.44;5084376;28;20024;-46
2022/03/09 08:55:47;;;;;;;49.13;21.83;;;;;;;12.56;32.08;102080.28;5081545;28;20047;-45
2022/03/09 08:58:13;;;;;;;50.08;22.70;;;;;;;12.88;31.84;102077.66;5082394;28;20021;-44
2022/03/09 09:00:38;;;;;;;47.30;22.23;;;;;;;12.18;32.60;102086.06;5079735;28;20020;-46
2022/03/09 09:03:04;;;;;;;44.22;21.42;;;;;;;11.93;33.16;102085.13;5084764;28;20043;-45
2022/03/09 09:05:29;;;;;;;47.13;21.10;;;;;;;11.40;33.36;102086.06;5076574;28;20025;-45
2022/03/09 09:07:55;;;;;;;53.17;21.45;;;;;;;11.69;33.25;102084.91;5082971;28;20041;-46
2022/03/09 09:10:20;;;;;;;47.92;21.02;;;;;;;11.48;34.79;102094.25;5080258;28;20045;-45
2022/03/09 09:12:50;;;;;;;46.83;21.92;;;;;;;11.73;33.90;102086.31;5087371;28;20036;-44
2022/03/09 09:15:16;;;;;;;55.38;23.45;;;;;;;11.67;33.49;102098.56;5085800;28;20041;-46
2022/03/09 09:17:41;;;;;;;52.58;21.70;;;;;;;11.60;34.14;102086.72;5073879;28;20036;-46
2022/03/09 09:20:07;;;;;;;60.75;22.98;;;;;;;12.69;32.40;102102.25;5078745;28;20036;-44
2022/03/09 09:22:33;;;;;;;54.63;22.73;;;;;;;13.35;31.65;102081.63;5071814;28;20036;-46
2022/03/09 09:25:00;;;;;;;52.45;23.67;;;;;;;14.05;30.49;102092.59;5074612;28;20497;-45
2022/03/09 09:27:25;;;;;;;55.85;24.23;;;;;;;14.54;30.05;102086.19;5089469;28;20394;-44
2022/03/09 09:29:50;;;;;;;58.63;23.02;;;;;;;13.97;30.43;102092.63;5072692;28;20028;-44
2022/03/09 09:32:16;;;;;;;57.58;24.58;;;;;;;14.23;30.05;102095.09;5077097;28;20161;-45
2022/03/09 09:34:41;;;;;;;58.08;23.55;;;;;;;13.88;30.09;102095.56;5083295;28;20032;-47
2022/03/09 09:37:07;;;;;;;59.42;24.50;;;;;;;13.92;30.51;102088.75;5078196;28;20028;-46
2022/03/09 09:39:32;;;;;;;64.50;24.08;;;;;;;13.16;31.21;102090.84;5082490;28;20020;-46
2022/03/09 09:41:58;;;;;;;57.38;23.02;;;;;;;13.10;32.00;102084.25;5077011;28;20502;-46
2022/03/09 09:44:24;;;;;;;60.72;23.75;;;;;;;13.31;31.16;102086.50;5080903;28;20032;-46
2022/03/09 09:46:51;;;;;;;57.17;24.13;;;;;;;13.52;31.87;102085.13;5073792;28;20393;-46
2022/03/09 09:49:16;;;;;;;56.65;24.48;;;;;;;12.78;32.74;102090.47;5077603;28;20041;-46
2022/03/09 09:51:45;;;;;;;58.10;23.73;;;;;;;12.72;32.67;102100.09;5073007;28;20077;-45
2022/03/09 09:54:13;;;;;;;62.05;24.30;;;;;;;12.35;33.08;102084.28;5074495;28;20038;-45
2022/03/09 09:56:40;;;;;;;60.55;24.08;;;;;;;12.30;34.04;102084.78;5070852;28;20031;-45
2022/03/09 09:59:06;;;;;;;62.20;24.70;;;;;;;12.76;33.26;102097.91;5073336;28;20073;-44
2022/03/09 10:01:31;;;;;;;63.83;24.00;;;;;;;12.40;33.20;102095.44;5086849;28;20410;-47
2022/03/09 10:03:57;;;;;;;69.10;25.80;;;;;;;12.23;33.68;102089.13;5081539;28;20047;-45
2022/03/09 10:06:22;;;;;;;73.15;25.38;;;;;;;12.26;34.31;102088.78;5088594;28;20027;-46
2022/03/09 10:09:06;;;;;;;64.45;25.08;;;;;;;12.20;34.80;102099.41;5074706;28;20056;-45
2022/03/09 10:11:43;;;;;;;59.50;24.42;;;;;;;12.78;33.51;102103.16;5091019;28;20474;-46
2022/03/09 10:14:09;;;;;;;67.43;24.50;;;;;;;12.40;33.69;102099.97;5079575;28;20142;-46
2022/03/09 10:16:34;;;;;;;65.53;26.42;;;;;;;13.64;32.43;102097.31;5091029;28;20118;-47
2022/03/09 10:19:01;;;;;;;59.55;25.00;;;;;;;13.77;31.97;102099.44;5091250;28;20032;-47
2022/03/09 10:21:28;;;;;;;68.78;26.80;;;;;;;13.06;32.80;102090.16;5082928;28;20104;-46
2022/03/09 10:24:08;;;;;;;70.45;26.40;;;;;;;13.03;33.25;102095.91;5076828;28;20021;-48
2022/03/09 10:26:38;;;;;;;66.70;27.00;;;;;;;13.97;31.91;102100.75;5086125;28;20063;-46
2022/03/09 10:29:08;;;;;;;69.40;26.42;;;;;;;13.38;31.82;102101.03;5091069;28;20024;-46
2022/03/09 10:31:48;;;;;;;76.68;27.23;;;;;;;13.61;32.34;102100.31;5087949;28;20471;-47
2022/03/09 10:34:24;;;;;;;62.90;25.38;;;;;;;13.88;32.41;102107.22;5090929;28;20026;-49
2022/03/09 10:37:00;;;;;;;68.13;28.23;;;;;;;12.90;33.38;102108.06;5084594;28;20047;-45
2022/03/09 10:39:31;;;;;;;68.03;26.73;;;;;;;13.00;33.77;102096.25;5077656;28;20101;-44
2022/03/09 10:41:58;;;;;;;74.65;27.40;;;;;;;13.31;33.28;102110.00;5086148;28;20495;-47
2022/03/09 10:44:44;;;;;;;79.97;27.30;;;;;;;12.75;33.92;102115.13;5083992;28;20032;-46
2022/03/09 10:47:10;;;;;;;79.20;25.88;;;;;;;12.92;34.47;102113.28;5083736;28;20143;-47
2022/03/09 10:49:36;;;;;;;73.05;26.42;;;;;;;12.89;33.75;102111.78;5089554;28;20032;-47
2022/03/09 10:52:03;;;;;;;72.07;27.70;;;;;;;12.90;34.48;102112.59;5088809;28;20042;-46
2022/03/09 10:54:32;;;;;;;77.57;26.60;;;;;;;13.10;34.61;102107.75;5083580;28;20490;-47
2022/03/09 10:57:08;;;;;;;74.00;28.25;;;;;;;12.85;33.91;102098.75;5087484;28;20036;-47
2022/03/09 10:59:51;;;;;;;74.72;27.73;;;;;;;13.09;34.35;102095.25;5088280;28;20063;-48
2022/03/09 11:02:21;;;;;;;78.72;28.70;;;;;;;13.76;33.78;102093.19;5087297;28;20038;-47
2022/03/09 11:05:08;;;;;;;76.22;26.25;;;;;;;13.24;33.87;102098.97;5085860;28;20093;-46
2022/03/09 11:07:37;;;;;;;79.03;26.98;;;;;;;13.39;34.24;102089.19;5083421;28;20070;-47
2022/03/09 11:10:08;;;;;;;75.65;28.45;;;;;;;13.54;34.32;102083.94;5089673;28;20032;-46
2022/03/09 11:12:34;;;;;;;83.03;30.00;;;;;;;13.93;33.30;102093.16;5090020;28;20409;-47